Terminal Aerodrome Forecast
Issued by NWS

Home | Current Version | Previous Version | Text Only | Print | Product List | Glossary On
Versions: 1 2 3 4 5 6 7 8 9 10 11 12 13 14 15 16 17 18 19
000
FTUS44 KEWX 021559 AAA
TAFSSF
TAF AMD
KSSF 021559Z 0216/0312 14006KT P6SM SCT015 BKN025
     FM021900 09006KT P6SM SCT040
     FM022100 13009KT P6SM VCSH SCT060 SCT250
     FM030200 14007KT P6SM FEW250
     FM030800 12006KT P6SM BKN012=

USA.gov is the U.S. government's official web portal to all federal, state and local government web resources and services.